sensor_id;sensor_type;location;lat;lon;timestamp;pressure;altitude;pressure_sealevel;temperature;humidity
36222;BME280;22266;52.340;4.962;2023-05-12T00:00:46;101767.72;;;13.25;78.64
36222;BME280;22266;52.340;4.962;2023-05-12T00:03:13;101769.09;;;13.21;79.99
36222;BME280;22266;52.340;4.962;2023-05-12T00:05:39;101765.09;;;13.17;79.39
36222;BME280;22266;52.340;4.962;2023-05-12T00:08:06;101764.25;;;13.17;80.42
36222;BME280;22266;52.340;4.962;2023-05-12T00:10:32;101765.09;;;13.17;80.15
36222;BME280;22266;52.340;4.962;2023-05-12T00:13:01;101766.31;;;13.15;80.05
36222;BME280;22266;52.340;4.962;2023-05-12T00:15:27;101758.75;;;13.10;80.03
36222;BME280;22266;52.340;4.962;2023-05-12T00:17:54;101762.09;;;13.12;80.22
36222;BME280;22266;52.340;4.962;2023-05-12T00:20:20;101756.69;;;13.12;80.72
36222;BME280;22266;52.340;4.962;2023-05-12T00:22:47;101758.00;;;13.16;80.86
36222;BME280;22266;52.340;4.962;2023-05-12T00:25:14;101753.44;;;13.17;80.16
36222;BME280;22266;52.340;4.962;2023-05-12T00:27:40;101758.44;;;13.20;80.54
36222;BME280;22266;52.340;4.962;2023-05-12T00:30:07;101762.00;;;13.20;80.59
36222;BME280;22266;52.340;4.962;2023-05-12T00:32:34;101762.00;;;13.20;80.87
36222;BME280;22266;52.340;4.962;2023-05-12T00:35:01;101759.28;;;13.20;80.59
36222;BME280;22266;52.340;4.962;2023-05-12T00:37:27;101760.63;;;13.24;80.98
36222;BME280;22266;52.340;4.962;2023-05-12T00:39:53;101759.28;;;13.20;80.30
36222;BME280;22266;52.340;4.962;2023-05-12T00:42:20;101753.16;;;13.11;80.61
36222;BME280;22266;52.340;4.962;2023-05-12T00:44:47;101757.34;;;13.14;81.43
36222;BME280;22266;52.340;4.962;2023-05-12T00:47:13;101756.31;;;13.15;80.52
36222;BME280;22266;52.340;4.962;2023-05-12T00:49:40;101763.91;;;13.05;80.22
36222;BME280;22266;52.340;4.962;2023-05-12T00:52:09;101755.03;;;12.96;80.57
36222;BME280;22266;52.340;4.962;2023-05-12T00:54:37;101752.53;;;12.95;81.12
36222;BME280;22266;52.340;4.962;2023-05-12T00:57:05;101747.69;;;12.90;81.08
36222;BME280;22266;52.340;4.962;2023-05-12T00:59:32;101749.19;;;12.93;81.10
36222;BME280;22266;52.340;4.962;2023-05-12T01:01:59;101747.31;;;12.93;81.01
36222;BME280;22266;52.340;4.962;2023-05-12T01:04:25;101747.94;;;12.95;81.67
36222;BME280;22266;52.340;4.962;2023-05-12T01:07:08;101743.00;;;12.99;81.69
36222;BME280;22266;52.340;4.962;2023-05-12T01:09:36;101739.47;;;12.98;81.44
36222;BME280;22266;52.340;4.962;2023-05-12T01:12:03;101742.47;;;12.89;80.49
36222;BME280;22266;52.340;4.962;2023-05-12T01:14:31;101731.78;;;12.80;81.37
36222;BME280;22266;52.340;4.962;2023-05-12T01:17:01;101734.84;;;12.77;81.49
36222;BME280;22266;52.340;4.962;2023-05-12T01:20:04;101732.78;;;12.79;82.23
36222;BME280;22266;52.340;4.962;2023-05-12T01:22:32;101735.94;;;12.83;82.31
36222;BME280;22266;52.340;4.962;2023-05-12T01:25:06;101731.66;;;12.89;82.11
36222;BME280;22266;52.340;4.962;2023-05-12T01:27:35;101726.25;;;12.89;82.00
36222;BME280;22266;52.340;4.962;2023-05-12T01:30:05;101733.69;;;12.86;81.78
36222;BME280;22266;52.340;4.962;2023-05-12T01:32:34;101727.19;;;12.81;81.66
36222;BME280;22266;52.340;4.962;2023-05-12T01:35:02;101721.97;;;12.79;82.08
36222;BME280;22266;52.340;4.962;2023-05-12T01:37:31;101715.34;;;12.82;81.77
36222;BME280;22266;52.340;4.962;2023-05-12T01:39:59;101718.06;;;12.82;81.90
36222;BME280;22266;52.340;4.962;2023-05-12T01:42:26;101717.78;;;12.77;81.58
36222;BME280;22266;52.340;4.962;2023-05-12T01:44:54;101722.16;;;12.78;81.97
36222;BME280;22266;52.340;4.962;2023-05-12T01:47:20;101720.75;;;12.82;82.27
36222;BME280;22266;52.340;4.962;2023-05-12T01:49:54;101722.06;;;12.86;81.70
36222;BME280;22266;52.340;4.962;2023-05-12T01:52:20;101717.28;;;12.88;82.00
36222;BME280;22266;52.340;4.962;2023-05-12T01:54:47;101716.94;;;12.91;81.91
36222;BME280;22266;52.340;4.962;2023-05-12T01:57:13;101715.47;;;12.89;81.97
36222;BME280;22266;52.340;4.962;2023-05-12T01:59:40;101716.75;;;12.93;82.20
36222;BME280;22266;52.340;4.962;2023-05-12T02:02:07;101716.47;;;12.87;81.78
36222;BME280;22266;52.340;4.962;2023-05-12T02:04:34;101710.78;;;12.82;82.52
36222;BME280;22266;52.340;4.962;2023-05-12T02:07:00;101712.28;;;12.85;83.00
36222;BME280;22266;52.340;4.962;2023-05-12T02:09:27;101714.53;;;12.81;82.64
36222;BME280;22266;52.340;4.962;2023-05-12T02:11:59;101707.81;;;12.77;82.89
36222;BME280;22266;52.340;4.962;2023-05-12T02:14:26;101711.91;;;12.73;83.32
36222;BME280;22266;52.340;4.962;2023-05-12T02:16:53;101716.28;;;12.74;83.45
36222;BME280;22266;52.340;4.962;2023-05-12T02:19:22;101703.81;;;12.73;83.78
36222;BME280;22266;52.340;4.962;2023-05-12T02:21:49;101700.91;;;12.75;83.95
36222;BME280;22266;52.340;4.962;2023-05-12T02:24:15;101710.53;;;12.77;84.23
36222;BME280;22266;52.340;4.962;2023-05-12T02:26:43;101697.56;;;12.73;83.83
36222;BME280;22266;52.340;4.962;2023-05-12T02:29:10;101713.59;;;12.74;84.52
36222;BME280;22266;52.340;4.962;2023-05-12T02:31:37;101707.16;;;12.75;84.58
36222;BME280;22266;52.340;4.962;2023-05-12T02:34:13;101704.28;;;12.77;84.72
36222;BME280;22266;52.340;4.962;2023-05-12T02:36:40;101697.19;;;12.76;84.74
36222;BME280;22266;52.340;4.962;2023-05-12T02:39:06;101709.69;;;12.77;84.65
36222;BME280;22266;52.340;4.962;2023-05-12T02:41:34;101709.69;;;12.77;84.75
36222;BME280;22266;52.340;4.962;2023-05-12T02:44:00;101697.94;;;12.70;84.81
36222;BME280;22266;52.340;4.962;2023-05-12T02:46:27;101711.25;;;12.71;84.70
36222;BME280;22266;52.340;4.962;2023-05-12T02:48:54;101717.69;;;12.70;85.14
36222;BME280;22266;52.340;4.962;2023-05-12T02:51:20;101700.91;;;12.75;85.43
36222;BME280;22266;52.340;4.962;2023-05-12T02:53:47;101704.28;;;12.77;85.31
36222;BME280;22266;52.340;4.962;2023-05-12T02:56:13;101698.78;;;12.70;84.86
36222;BME280;22266;52.340;4.962;2023-05-12T02:58:40;101699.81;;;12.69;85.60
36222;BME280;22266;52.340;4.962;2023-05-12T03:01:07;101703.63;;;12.75;85.83
36222;BME280;22266;52.340;4.962;2023-05-12T03:03:37;101695.16;;;12.78;85.47
36222;BME280;22266;52.340;4.962;2023-05-12T03:06:05;101692.25;;;12.79;85.62
36222;BME280;22266;52.340;4.962;2023-05-12T03:08:32;101687.25;;;12.76;85.18
36222;BME280;22266;52.340;4.962;2023-05-12T03:10:59;101695.97;;;12.78;85.81
36222;BME280;22266;52.340;4.962;2023-05-12T03:13:25;101694.09;;;12.79;85.45
36222;BME280;22266;52.340;4.962;2023-05-12T03:15:52;101689.38;;;12.81;85.60
36222;BME280;22266;52.340;4.962;2023-05-12T03:18:19;101693.06;;;12.80;85.38
36222;BME280;22266;52.340;4.962;2023-05-12T03:20:46;101695.34;;;12.76;85.41
36222;BME280;22266;52.340;4.962;2023-05-12T03:23:13;101690.31;;;12.73;85.74
36222;BME280;22266;52.340;4.962;2023-05-12T03:25:39;101690.09;;;12.75;85.91
36222;BME280;22266;52.340;4.962;2023-05-12T03:28:06;101695.03;;;12.71;85.57
36222;BME280;22266;52.340;4.962;2023-05-12T03:30:33;101696.75;;;12.72;86.10
36222;BME280;22266;52.340;4.962;2023-05-12T03:32:59;101687.25;;;12.76;86.23
36222;BME280;22266;52.340;4.962;2023-05-12T03:35:26;101690.31;;;12.73;86.13
36222;BME280;22266;52.340;4.962;2023-05-12T03:37:52;101684.72;;;12.75;86.42
36222;BME280;22266;52.340;4.962;2023-05-12T03:40:19;101684.53;;;12.76;86.17
36222;BME280;22266;52.340;4.962;2023-05-12T03:42:46;101685.53;;;12.75;86.23
36222;BME280;22266;52.340;4.962;2023-05-12T03:45:13;101682.19;;;12.73;86.44
36222;BME280;22266;52.340;4.962;2023-05-12T03:47:39;101683.41;;;12.71;86.60
36222;BME280;22266;52.340;4.962;2023-05-12T03:50:07;101678.38;;;12.68;86.93
36222;BME280;22266;52.340;4.962;2023-05-12T03:52:34;101675.31;;;12.71;87.31
36222;BME280;22266;52.340;4.962;2023-05-12T03:55:06;101674.94;;;12.74;87.46
36222;BME280;22266;52.340;4.962;2023-05-12T03:57:33;101677.63;;;12.74;87.71
36222;BME280;22266;52.340;4.962;2023-05-12T04:00:05;101677.06;;;12.78;87.71
36222;BME280;22266;52.340;4.962;2023-05-12T04:02:41;101677.28;;;12.77;87.18
36222;BME280;22266;52.340;4.962;2023-05-12T04:05:08;101684.53;;;12.76;87.26
36222;BME280;22266;52.340;4.962;2023-05-12T04:07:35;101679.97;;;12.77;87.75
36222;BME280;22266;52.340;4.962;2023-05-12T04:10:02;101680.53;;;12.72;87.20
36222;BME280;22266;52.340;4.962;2023-05-12T04:12:29;101688.44;;;12.74;87.69
36222;BME280;22266;52.340;4.962;2023-05-12T04:14:56;101684.91;;;12.73;87.70
36222;BME280;22266;52.340;4.962;2023-05-12T04:17:23;101677.63;;;12.74;87.94
36222;BME280;22266;52.340;4.962;2023-05-12T04:19:51;101675.97;;;12.73;88.03
36222;BME280;22266;52.340;4.962;2023-05-12T04:22:18;101674.09;;;12.73;87.93
36222;BME280;22266;52.340;4.962;2023-05-12T04:24:45;101670.38;;;12.74;87.74
36222;BME280;22266;52.340;4.962;2023-05-12T04:27:11;101672.22;;;12.74;88.01
36222;BME280;22266;52.340;4.962;2023-05-12T04:29:38;101675.13;;;12.72;88.03
36222;BME280;22266;52.340;4.962;2023-05-12T04:32:05;101677.63;;;12.74;88.19
36222;BME280;22266;52.340;4.962;2023-05-12T04:34:32;101680.13;;;12.75;88.48
36222;BME280;22266;52.340;4.962;2023-05-12T04:36:59;101683.31;;;12.79;88.79
36222;BME280;22266;52.340;4.962;2023-05-12T04:39:26;101686.84;;;12.79;88.85
36222;BME280;22266;52.340;4.962;2023-05-12T04:41:53;101684.97;;;12.80;88.42
36222;BME280;22266;52.340;4.962;2023-05-12T04:44:20;101682.09;;;12.81;88.89
36222;BME280;22266;52.340;4.962;2023-05-12T04:46:48;101675.88;;;12.81;88.42
36222;BME280;22266;52.340;4.962;2023-05-12T04:49:18;101673.31;;;12.79;88.17
36222;BME280;22266;52.340;4.962;2023-05-12T04:51:46;101681.63;;;12.78;88.88
36222;BME280;22266;52.340;4.962;2023-05-12T04:54:13;101688.53;;;12.80;88.70
36222;BME280;22266;52.340;4.962;2023-05-12T04:56:39;101692.66;;;12.76;88.24
36222;BME280;22266;52.340;4.962;2023-05-12T04:59:06;101695.16;;;12.78;88.81
36222;BME280;22266;52.340;4.962;2023-05-12T05:01:33;101699.78;;;12.84;89.34
36222;BME280;22266;52.340;4.962;2023-05-12T05:03:59;101691.31;;;12.87;88.74
36222;BME280;22266;52.340;4.962;2023-05-12T05:06:26;101693.53;;;12.83;89.01
36222;BME280;22266;52.340;4.962;2023-05-12T05:08:53;101700.25;;;12.87;88.67
36222;BME280;22266;52.340;4.962;2023-05-12T05:11:21;101706.69;;;12.86;88.92
36222;BME280;22266;52.340;4.962;2023-05-12T05:13:47;101719.00;;;12.89;88.90
36222;BME280;22266;52.340;4.962;2023-05-12T05:16:16;101713.03;;;12.94;88.93
36222;BME280;22266;52.340;4.962;2023-05-12T05:18:43;101719.91;;;12.96;88.88
36222;BME280;22266;52.340;4.962;2023-05-12T05:21:12;101730.69;;;12.96;88.15
36222;BME280;22266;52.340;4.962;2023-05-12T05:23:42;101731.94;;;12.94;88.88
36222;BME280;22266;52.340;4.962;2023-05-12T05:26:08;101735.66;;;12.93;88.89
36222;BME280;22266;52.340;4.962;2023-05-12T05:28:35;101739.09;;;12.86;87.93
36222;BME280;22266;52.340;4.962;2023-05-12T05:31:03;101740.97;;;12.86;88.60
36222;BME280;22266;52.340;4.962;2023-05-12T05:33:29;101744.88;;;12.83;88.56
36222;BME280;22266;52.340;4.962;2023-05-12T05:35:56;101749.66;;;12.81;88.97
36222;BME280;22266;52.340;4.962;2023-05-12T05:38:23;101739.69;;;12.82;89.40
36222;BME280;22266;52.340;4.962;2023-05-12T05:40:49;101740.88;;;12.79;88.70
36222;BME280;22266;52.340;4.962;2023-05-12T05:43:21;101746.28;;;12.79;88.85
36222;BME280;22266;52.340;4.962;2023-05-12T05:45:48;101743.09;;;12.76;88.79
36222;BME280;22266;52.340;4.962;2023-05-12T05:48:16;101750.56;;;12.74;89.54
36222;BME280;22266;52.340;4.962;2023-05-12T05:50:42;101747.50;;;12.77;89.40
36222;BME280;22266;52.340;4.962;2023-05-12T05:53:09;101746.47;;;12.78;89.46
36222;BME280;22266;52.340;4.962;2023-05-12T05:55:36;101749.66;;;12.81;89.47
36222;BME280;22266;52.340;4.962;2023-05-12T05:58:02;101757.91;;;12.80;89.65
36222;BME280;22266;52.340;4.962;2023-05-12T06:00:29;101763.31;;;12.80;89.58
36222;BME280;22266;52.340;4.962;2023-05-12T06:02:56;101770.44;;;12.81;89.77
36222;BME280;22266;52.340;4.962;2023-05-12T06:05:22;101772.94;;;12.82;89.62
36222;BME280;22266;52.340;4.962;2023-05-12T06:07:49;101769.03;;;12.85;90.06
36222;BME280;22266;52.340;4.962;2023-05-12T06:10:15;101775.53;;;12.91;90.38
36222;BME280;22266;52.340;4.962;2023-05-12T06:12:42;101768.28;;;12.91;90.25
36222;BME280;22266;52.340;4.962;2023-05-12T06:15:09;101769.09;;;12.92;89.86
36222;BME280;22266;52.340;4.962;2023-05-12T06:17:36;101771.06;;;12.98;90.41
36222;BME280;22266;52.340;4.962;2023-05-12T06:20:04;101776.47;;;12.98;89.80
36222;BME280;22266;52.340;4.962;2023-05-12T06:22:32;101768.16;;;12.99;89.67
36222;BME280;22266;52.340;4.962;2023-05-12T06:25:00;101774.25;;;13.01;89.88
36222;BME280;22266;52.340;4.962;2023-05-12T06:27:27;101776.75;;;13.03;89.72
36222;BME280;22266;52.340;4.962;2023-05-12T06:29:53;101782.81;;;13.05;89.11
36222;BME280;22266;52.340;4.962;2023-05-12T06:32:20;101781.13;;;13.04;88.48
36222;BME280;22266;52.340;4.962;2023-05-12T06:34:46;101775.72;;;13.04;89.34
36222;BME280;22266;52.340;4.962;2023-05-12T06:37:12;101779.72;;;13.08;89.28
36222;BME280;22266;52.340;4.962;2023-05-12T06:39:39;101784.59;;;13.13;88.56
36222;BME280;22266;52.340;4.962;2023-05-12T06:42:05;101787.00;;;13.07;87.23
36222;BME280;22266;52.340;4.962;2023-05-12T06:44:39;101781.78;;;13.06;88.10
36222;BME280;22266;52.340;4.962;2023-05-12T06:47:07;101788.13;;;13.13;88.59
36222;BME280;22266;52.340;4.962;2023-05-12T06:49:34;101783.19;;;13.17;88.38
36222;BME280;22266;52.340;4.962;2023-05-12T06:52:03;101796.50;;;13.18;87.40
36222;BME280;22266;52.340;4.962;2023-05-12T06:54:30;101796.50;;;13.18;87.18
36222;BME280;22266;52.340;4.962;2023-05-12T06:56:57;101799.84;;;13.20;87.44
36222;BME280;22266;52.340;4.962;2023-05-12T06:59:23;101796.50;;;13.18;87.22
36222;BME280;22266;52.340;4.962;2023-05-12T07:01:50;101806.94;;;13.21;87.98
36222;BME280;22266;52.340;4.962;2023-05-12T07:04:16;101805.91;;;13.22;87.14
36222;BME280;22266;52.340;4.962;2023-05-12T07:06:43;101806.59;;;13.24;87.16
36222;BME280;22266;52.340;4.962;2023-05-12T07:09:09;101811.53;;;13.21;86.95
36222;BME280;22266;52.340;4.962;2023-05-12T07:11:36;101806.47;;;13.18;86.96
36222;BME280;22266;52.340;4.962;2023-05-12T07:14:02;101802.53;;;13.20;87.49
36222;BME280;22266;52.340;4.962;2023-05-12T07:16:29;101815.34;;;13.26;87.60
36222;BME280;22266;52.340;4.962;2023-05-12T07:18:55;101809.00;;;13.34;87.21
36222;BME280;22266;52.340;4.962;2023-05-12T07:21:22;101810.31;;;13.38;87.70
36222;BME280;22266;52.340;4.962;2023-05-12T07:23:49;101813.66;;;13.40;86.59
36222;BME280;22266;52.340;4.962;2023-05-12T07:26:16;101815.25;;;13.34;85.97
36222;BME280;22266;52.340;4.962;2023-05-12T07:28:43;101812.28;;;13.29;85.73
36222;BME280;22266;52.340;4.962;2023-05-12T07:31:10;101812.47;;;13.28;86.61
36222;BME280;22266;52.340;4.962;2023-05-12T07:33:36;101821.03;;;13.31;86.49
36222;BME280;22266;52.340;4.962;2023-05-12T07:36:03;101822.53;;;13.34;86.64
36222;BME280;22266;52.340;4.962;2023-05-12T07:38:30;101830.72;;;13.41;86.29
36222;BME280;22266;52.340;4.962;2023-05-12T07:40:58;101818.88;;;13.42;86.27
36222;BME280;22266;52.340;4.962;2023-05-12T07:43:24;101826.69;;;13.51;86.55
36222;BME280;22266;52.340;4.962;2023-05-12T07:45:51;101826.50;;;13.53;86.04
36222;BME280;22266;52.340;4.962;2023-05-12T07:48:17;101823.53;;;13.48;85.64
36222;BME280;22266;52.340;4.962;2023-05-12T07:50:44;101823.72;;;13.46;85.85
36222;BME280;22266;52.340;4.962;2023-05-12T07:53:10;101821.09;;;13.53;86.12
36222;BME280;22266;52.340;4.962;2023-05-12T07:55:37;101833.41;;;13.55;85.84
36222;BME280;22266;52.340;4.962;2023-05-12T07:58:04;101825.94;;;13.57;86.21
36222;BME280;22266;52.340;4.962;2023-05-12T08:00:30;101826.22;;;13.63;86.06
36222;BME280;22266;52.340;4.962;2023-05-12T08:02:56;101837.56;;;13.73;86.24
36222;BME280;22266;52.340;4.962;2023-05-12T08:05:23;101835.59;;;13.81;85.84
36222;BME280;22266;52.340;4.962;2023-05-12T08:07:50;101836.13;;;13.77;85.00
36222;BME280;22266;52.340;4.962;2023-05-12T08:10:16;101833.06;;;13.80;85.47
36222;BME280;22266;52.340;4.962;2023-05-12T08:12:44;101846.31;;;13.90;85.62
36222;BME280;22266;52.340;4.962;2023-05-12T08:15:11;101845.63;;;13.88;84.68
36222;BME280;22266;52.340;4.962;2023-05-12T08:17:38;101850.84;;;13.89;85.12
36222;BME280;22266;52.340;4.962;2023-05-12T08:20:05;101850.00;;;13.89;84.63
36222;BME280;22266;52.340;4.962;2023-05-12T08:22:32;101840.88;;;13.90;84.77
36222;BME280;22266;52.340;4.962;2023-05-12T08:24:58;101852.59;;;13.97;84.88
36222;BME280;22266;52.340;4.962;2023-05-12T08:27:25;101854.34;;;14.04;85.55
36222;BME280;22266;52.340;4.962;2023-05-12T08:29:51;101856.09;;;14.12;84.82
36222;BME280;22266;52.340;4.962;2023-05-12T08:32:18;101861.91;;;14.09;84.71
36222;BME280;22266;52.340;4.962;2023-05-12T08:34:44;101863.59;;;14.10;84.05
36222;BME280;22266;52.340;4.962;2023-05-12T08:37:11;101875.88;;;14.13;84.76
36222;BME280;22266;52.340;4.962;2023-05-12T08:39:37;101874.59;;;14.08;84.17
36222;BME280;22266;52.340;4.962;2023-05-12T08:42:29;101875.63;;;14.07;84.74
36222;BME280;22266;52.340;4.962;2023-05-12T08:44:56;101869.84;;;14.10;85.03
36222;BME280;22266;52.340;4.962;2023-05-12T08:47:25;101870.56;;;14.19;85.78
36222;BME280;22266;52.340;4.962;2023-05-12T08:49:59;101872.47;;;14.25;84.99
36222;BME280;22266;52.340;4.962;2023-05-12T08:52:33;101872.47;;;14.25;84.89
36222;BME280;22266;52.340;4.962;2023-05-12T08:55:00;101876.28;;;14.31;85.00
36222;BME280;22266;52.340;4.962;2023-05-12T08:57:29;101872.34;;;14.33;84.63
36222;BME280;22266;52.340;4.962;2023-05-12T08:59:57;101880.47;;;14.33;84.48
36222;BME280;22266;52.340;4.962;2023-05-12T09:02:26;101877.75;;;14.33;84.51
36222;BME280;22266;52.340;4.962;2023-05-12T09:05:07;101871.97;;;14.37;84.40
36222;BME280;22266;52.340;4.962;2023-05-12T09:07:35;101890.53;;;14.40;84.25
36222;BME280;22266;52.340;4.962;2023-05-12T09:10:02;101884.16;;;14.47;83.94
36222;BME280;22266;52.340;4.962;2023-05-12T09:12:33;101881.44;;;14.47;83.48
36222;BME280;22266;52.340;4.962;2023-05-12T09:15:04;101878.63;;;14.55;83.67
36222;BME280;22266;52.340;4.962;2023-05-12T09:17:34;101882.25;;;14.63;83.81
36222;BME280;22266;52.340;4.962;2023-05-12T09:20:00;101882.50;;;14.68;83.76
36222;BME280;22266;52.340;4.962;2023-05-12T09:22:30;101888.22;;;14.79;83.93
36222;BME280;22266;52.340;4.962;2023-05-12T09:24:56;101885.59;;;14.93;83.91
36222;BME280;22266;52.340;4.962;2023-05-12T09:27:24;101889.16;;;14.93;82.86
36222;BME280;22266;52.340;4.962;2023-05-12T09:29:51;101885.81;;;14.91;82.67
36222;BME280;22266;52.340;4.962;2023-05-12T09:32:29;101893.28;;;14.89;82.46
36222;BME280;22266;52.340;4.962;2023-05-12T09:35:04;101886.38;;;14.87;82.49
36222;BME280;22266;52.340;4.962;2023-05-12T09:37:32;101889.28;;;14.85;82.67
36222;BME280;22266;52.340;4.962;2023-05-12T09:40:00;101893.88;;;14.84;82.99
36222;BME280;22266;52.340;4.962;2023-05-12T09:42:29;101893.72;;;14.93;83.39
36222;BME280;22266;52.340;4.962;2023-05-12T09:45:05;101902.31;;;14.96;82.99
36222;BME280;22266;52.340;4.962;2023-05-12T09:47:36;101901.47;;;14.96;82.89
36222;BME280;22266;52.340;4.962;2023-05-12T09:50:04;101909.16;;;14.92;82.36
36222;BME280;22266;52.340;4.962;2023-05-12T09:52:35;101903.28;;;14.89;82.55
36222;BME280;22266;52.340;4.962;2023-05-12T09:55:10;101911.44;;;14.89;82.67
36222;BME280;22266;52.340;4.962;2023-05-12T09:57:41;101910.38;;;14.90;82.44
36222;BME280;22266;52.340;4.962;2023-05-12T10:00:10;101907.22;;;14.86;82.40
36222;BME280;22266;52.340;4.962;2023-05-12T10:02:59;101908.94;;;14.87;82.71
36222;BME280;22266;52.340;4.962;2023-05-12T10:05:27;101911.88;;;14.92;83.19
36222;BME280;22266;52.340;4.962;2023-05-12T10:07:56;101917.22;;;15.07;83.50
36222;BME280;22266;52.340;4.962;2023-05-12T10:10:25;101917.91;;;15.22;83.29
36222;BME280;22266;52.340;4.962;2023-05-12T10:12:52;101919.25;;;15.33;82.21
36222;BME280;22266;52.340;4.962;2023-05-12T10:15:21;101919.97;;;15.48;82.48
36222;BME280;22266;52.340;4.962;2023-05-12T10:17:50;101920.63;;;15.57;82.02
36222;BME280;22266;52.340;4.962;2023-05-12T10:20:19;101908.97;;;15.63;81.40
36222;BME280;22266;52.340;4.962;2023-05-12T10:22:47;101916.97;;;15.71;81.85
36222;BME280;22266;52.340;4.962;2023-05-12T10:25:15;101919.94;;;15.76;80.34
36222;BME280;22266;52.340;4.962;2023-05-12T10:27:43;101921.81;;;15.82;81.21
36222;BME280;22266;52.340;4.962;2023-05-12T10:30:10;101920.41;;;15.93;81.62
36222;BME280;22266;52.340;4.962;2023-05-12T10:32:37;101930.09;;;16.09;80.00
36222;BME280;22266;52.340;4.962;2023-05-12T10:35:10;101920.88;;;16.10;79.10
36222;BME280;22266;52.340;4.962;2023-05-12T10:37:38;101924.66;;;16.09;79.66
36222;BME280;22266;52.340;4.962;2023-05-12T10:40:05;101929.22;;;16.02;78.73
36222;BME280;22266;52.340;4.962;2023-05-12T10:42:40;101928.16;;;16.03;79.23
36222;BME280;22266;52.340;4.962;2023-05-12T10:45:15;101927.16;;;16.11;78.60
36222;BME280;22266;52.340;4.962;2023-05-12T10:47:46;101926.75;;;16.20;79.12
36222;BME280;22266;52.340;4.962;2023-05-12T10:50:12;101924.28;;;16.25;78.60
36222;BME280;22266;52.340;4.962;2023-05-12T10:52:40;101923.03;;;16.35;78.75
36222;BME280;22266;52.340;4.962;2023-05-12T10:55:29;101927.22;;;16.44;77.94
36222;BME280;22266;52.340;4.962;2023-05-12T10:58:04;101930.16;;;16.42;78.24
36222;BME280;22266;52.340;4.962;2023-05-12T11:00:42;101920.97;;;16.37;77.62
36222;BME280;22266;52.340;4.962;2023-05-12T11:03:13;101920.09;;;16.36;78.61
36222;BME280;22266;52.340;4.962;2023-05-12T11:05:42;101920.16;;;16.49;78.85
36222;BME280;22266;52.340;4.962;2023-05-12T11:08:09;101918.25;;;16.56;78.30
36222;BME280;22266;52.340;4.962;2023-05-12T11:10:40;101927.28;;;16.70;76.24
36222;BME280;22266;52.340;4.962;2023-05-12T11:13:06;101928.56;;;16.74;76.53
36222;BME280;22266;52.340;4.962;2023-05-12T11:15:33;101922.91;;;16.76;76.47
36222;BME280;22266;52.340;4.962;2023-05-12T11:18:01;101916.41;;;16.77;75.96
36222;BME280;22266;52.340;4.962;2023-05-12T11:20:28;101913.91;;;16.82;77.38
36222;BME280;22266;52.340;4.962;2023-05-12T11:22:56;101923.13;;;16.94;77.28
36222;BME280;22266;52.340;4.962;2023-05-12T11:25:25;101926.00;;;17.13;77.09
36222;BME280;22266;52.340;4.962;2023-05-12T11:27:52;101934.38;;;17.24;76.52
36222;BME280;22266;52.340;4.962;2023-05-12T11:30:19;101941.94;;;17.22;76.38
36222;BME280;22266;52.340;4.962;2023-05-12T11:32:45;101940.69;;;17.18;77.08
36222;BME280;22266;52.340;4.962;2023-05-12T11:37:40;101943.19;;;17.26;76.40
36222;BME280;22266;52.340;4.962;2023-05-12T11:40:14;101938.34;;;17.35;76.63
36222;BME280;22266;52.340;4.962;2023-05-12T11:42:41;101936.66;;;17.41;76.06
36222;BME280;22266;52.340;4.962;2023-05-12T11:45:28;101945.44;;;17.43;76.59
36222;BME280;22266;52.340;4.962;2023-05-12T11:48:10;101946.69;;;17.34;75.34
36222;BME280;22266;52.340;4.962;2023-05-12T11:50:40;101942.72;;;17.29;76.15
36222;BME280;22266;52.340;4.962;2023-05-12T11:53:11;101929.75;;;17.32;76.26
36222;BME280;22266;52.340;4.962;2023-05-12T11:55:47;101932.72;;;17.30;76.90
36222;BME280;22266;52.340;4.962;2023-05-12T11:58:26;101936.69;;;17.27;76.55
36222;BME280;22266;52.340;4.962;2023-05-12T12:00:56;101938.56;;;17.27;77.04
36222;BME280;22266;52.340;4.962;2023-05-12T12:03:23;101947.75;;;17.33;77.53
36222;BME280;22266;52.340;4.962;2023-05-12T12:06:01;101949.41;;;17.40;76.65
36222;BME280;22266;52.340;4.962;2023-05-12T12:08:27;101954.44;;;17.37;76.22
36222;BME280;22266;52.340;4.962;2023-05-12T12:10:54;101951.09;;;17.41;75.80
36222;BME280;22266;52.340;4.962;2023-05-12T12:13:22;101943.56;;;17.43;75.14
36222;BME280;22266;52.340;4.962;2023-05-12T12:15:49;101947.94;;;17.38;73.38
36222;BME280;22266;52.340;4.962;2023-05-12T12:18:16;101953.84;;;17.35;73.69
36222;BME280;22266;52.340;4.962;2023-05-12T12:20:43;101951.31;;;17.40;74.47
36222;BME280;22266;52.340;4.962;2023-05-12T12:23:10;101948.59;;;17.46;74.29
36222;BME280;22266;52.340;4.962;2023-05-12T12:25:36;101952.75;;;17.49;74.44
36222;BME280;22266;52.340;4.962;2023-05-12T12:28:03;101948.34;;;17.54;75.01
36222;BME280;22266;52.340;4.962;2023-05-12T12:30:29;101947.91;;;17.64;74.98
36222;BME280;22266;52.340;4.962;2023-05-12T12:32:56;101952.06;;;17.73;74.83
36222;BME280;22266;52.340;4.962;2023-05-12T12:35:23;101957.50;;;17.87;73.78
36222;BME280;22266;52.340;4.962;2023-05-12T12:37:49;101961.66;;;17.89;72.78
36222;BME280;22266;52.340;4.962;2023-05-12T12:40:18;101949.28;;;18.00;72.58
36222;BME280;22266;52.340;4.962;2023-05-12T12:42:51;101952.56;;;18.15;72.49
36222;BME280;22266;52.340;4.962;2023-05-12T12:45:18;101956.06;;;18.22;71.74
36222;BME280;22266;52.340;4.962;2023-05-12T12:47:46;101948.84;;;18.41;71.41
36222;BME280;22266;52.340;4.962;2023-05-12T12:50:12;101955.25;;;18.53;70.42
36222;BME280;22266;52.340;4.962;2023-05-12T12:52:39;101957.47;;;18.63;69.99
36222;BME280;22266;52.340;4.962;2023-05-12T12:55:06;101941.94;;;18.70;69.57
36222;BME280;22266;52.340;4.962;2023-05-12T12:57:32;101951.97;;;18.76;67.47